createdAt,value
2024-05-09T00:03:29.626Z,102232.73
2024-05-09T00:08:47.485Z,102229.19
2024-05-09T00:14:12.701Z,102224.05
2024-05-09T00:19:37.989Z,102223.73
2024-05-09T00:25:03.253Z,102222.38
2024-05-09T00:30:34.596Z,102219.90
2024-05-09T00:36:01.974Z,102219.21
2024-05-09T00:41:27.442Z,102213.77
2024-05-09T00:46:53.011Z,102212.31
2024-05-09T00:52:18.843Z,102217.34
2024-05-09T00:57:45.606Z,102210.40
2024-05-09T01:03:12.832Z,102208.84
2024-05-09T01:08:39.688Z,102209.92
2024-05-09T01:14:03.494Z,102216.95
2024-05-09T01:19:36.942Z,102223.73
2024-05-09T01:24:55.688Z,102222.85
2024-05-09T01:30:24.570Z,102220.88
2024-05-09T01:35:56.562Z,102217.02
2024-05-09T01:41:21.767Z,102222.35
2024-05-09T01:46:47.040Z,102219.31
2024-05-09T01:52:12.226Z,102220.08
2024-05-09T01:57:37.414Z,102212.84
2024-05-09T02:03:05.066Z,102214.09
2024-05-09T02:08:29.584Z,102213.11
2024-05-09T02:13:54.856Z,102210.20
2024-05-09T02:19:20.325Z,102214.30
2024-05-09T02:24:45.851Z,102216.43
2024-05-09T02:30:18.760Z,102214.39
2024-05-09T02:35:51.301Z,102209.95
2024-05-09T02:41:16.775Z,102208.67
2024-05-09T02:46:42.040Z,102207.86
2024-05-09T02:51:59.565Z,102201.23
2024-05-09T02:57:17.521Z,102203.53
2024-05-09T03:02:43.015Z,102203.64
2024-05-09T03:08:08.539Z,102204.31
2024-05-09T03:13:34.630Z,102204.05
2024-05-09T03:19:00.057Z,102205.73
2024-05-09T03:24:25.887Z,102209.71
2024-05-09T03:29:43.636Z,102209.79
2024-05-09T03:35:08.835Z,102209.40
2024-05-09T03:40:34.478Z,102210.95
2024-05-09T03:45:59.599Z,102214.77
2024-05-09T03:51:25.340Z,102217.39
2024-05-09T03:56:50.530Z,102219.00
2024-05-09T04:02:16.005Z,102220.73
2024-05-09T04:07:41.329Z,102220.95
2024-05-09T04:13:06.503Z,102221.04
2024-05-09T04:18:31.813Z,102213.50
2024-05-09T04:23:57.049Z,102216.14
2024-05-09T04:29:22.258Z,102219.93
2024-05-09T04:34:47.513Z,102218.34
2024-05-09T04:40:24.040Z,102226.62
2024-05-09T04:45:56.264Z,102223.98
2024-05-09T04:51:22.996Z,102223.86
2024-05-09T04:56:48.206Z,102228.54
2024-05-09T05:02:13.474Z,102230.25
2024-05-09T05:07:38.737Z,102230.69
2024-05-09T05:13:02.298Z,102228.36
2024-05-09T05:18:10.137Z,102229.92
2024-05-09T05:23:36.809Z,102230.03
2024-05-09T05:28:51.992Z,102234.13
2024-05-09T05:33:57.008Z,102231.59
2024-05-09T05:39:02.170Z,102226.08
2024-05-09T05:44:10.475Z,102232.30
2024-05-09T05:49:17.862Z,102233.11
2024-05-09T05:54:32.994Z,102234.25
2024-05-09T05:59:40.382Z,102233.58
2024-05-09T06:04:45.798Z,102231.83
2024-05-09T06:09:50.879Z,102223.17
2024-05-09T06:14:58.556Z,102228.27
2024-05-09T06:20:13.247Z,102226.31
2024-05-09T06:25:22.479Z,102225.83
2024-05-09T06:30:38.603Z,102220.23
2024-05-09T06:35:56.977Z,102220.70
2024-05-09T06:41:15.812Z,102219.31
2024-05-09T06:46:39.854Z,102216.88
2024-05-09T06:51:49.652Z,102211.36
2024-05-09T06:57:14.871Z,102210.84
2024-05-09T07:02:23.226Z,102210.85
2024-05-09T07:07:42.432Z,102205.13
2024-05-09T07:13:07.792Z,102202.33
2024-05-09T07:18:19.925Z,102200.42
2024-05-09T07:23:29.256Z,102203.03
2024-05-09T07:28:46.952Z,102198.98
2024-05-09T07:34:12.389Z,102198.36
2024-05-09T07:39:30.528Z,102198.13
2024-05-09T07:44:49.361Z,102196.21
2024-05-09T07:55:25.866Z,102196.11
2024-05-09T08:00:32.170Z,102192.42
2024-05-09T08:05:51.215Z,102189.55
2024-05-09T08:10:58.667Z,102183.45
2024-05-09T08:16:04.151Z,102181.91
2024-05-09T08:21:12.487Z,102178.59
2024-05-09T08:26:37.699Z,102182.30
2024-05-09T08:32:03.169Z,102181.95
2024-05-09T08:37:15.787Z,102173.10
2024-05-09T08:42:43.075Z,102169.14
2024-05-09T08:48:01.073Z,102161.39
2024-05-09T08:53:11.860Z,102165.59
2024-05-09T08:58:19.055Z,102162.74
2024-05-09T09:03:37.735Z,102164.31
2024-05-09T09:08:59.823Z,102163.11
2024-05-09T09:14:15.922Z,102159.67
2024-05-09T09:19:22.768Z,102155.69
2024-05-09T09:24:48.156Z,102152.13
2024-05-09T09:30:03.624Z,102153.39
2024-05-09T09:35:09.902Z,102153.58
2024-05-09T09:46:59.697Z,102158.09
2024-05-09T09:52:26.683Z,102152.81
2024-05-09T09:57:35.802Z,102150.21
2024-05-09T10:03:01.822Z,102150.10
2024-05-09T10:08:29.684Z,102147.65
2024-05-09T10:13:55.516Z,102143.39
2024-05-09T10:19:03.866Z,102140.77
2024-05-09T10:24:12.577Z,102139.15
2024-05-09T10:29:28.929Z,102141.57
2024-05-09T10:34:38.323Z,102141.68
2024-05-09T10:39:53.851Z,102131.79
2024-05-09T10:45:19.905Z,102124.73
2024-05-09T10:50:36.142Z,102114.63
2024-05-09T10:56:01.426Z,102110.77
2024-05-09T11:01:27.572Z,102103.41
2024-05-09T11:06:35.792Z,102101.64
2024-05-09T11:12:01.368Z,102099.63
2024-05-09T11:17:28.186Z,102092.02
2024-05-09T11:22:54.050Z,102089.17
2024-05-09T11:28:21.666Z,102087.31
2024-05-09T11:33:48.920Z,102082.98
2024-05-09T11:39:14.597Z,102076.52
2024-05-09T11:44:40.059Z,102071.02
2024-05-09T11:49:48.302Z,102073.38
2024-05-09T11:55:13.767Z,102064.78
2024-05-09T12:00:38.144Z,102060.52
2024-05-09T12:06:03.671Z,102057.81
2024-05-09T12:11:29.430Z,102052.80
2024-05-09T12:16:54.986Z,102048.29
2024-05-09T12:22:10.458Z,102041.34
2024-05-09T12:27:25.706Z,102040.08
2024-05-09T12:32:51.258Z,102029.75
2024-05-09T12:38:17.351Z,102021.52
2024-05-09T12:43:31.588Z,102020.79
2024-05-09T12:48:37.178Z,102010.33
2024-05-09T12:53:45.568Z,102006.46
2024-05-09T12:59:12.290Z,101998.09
2024-05-09T13:04:37.798Z,101994.39
2024-05-09T13:10:04.441Z,101983.56
2024-05-09T13:15:19.196Z,101971.86
2024-05-09T13:20:44.968Z,101969.10
2024-05-09T13:25:52.983Z,101958.73
2024-05-09T13:31:08.224Z,101954.20
2024-05-09T13:36:33.707Z,101948.28
2024-05-09T13:41:59.028Z,101942.83
2024-05-09T13:47:24.039Z,101937.02
2024-05-09T13:52:42.076Z,101944.73
2024-05-09T13:58:07.924Z,101933.17
2024-05-09T14:03:18.413Z,101928.35
2024-05-09T14:08:35.134Z,101923.64
2024-05-09T14:13:51.300Z,101922.67
2024-05-09T14:19:16.851Z,101916.12
2024-05-09T14:24:25.041Z,101911.75
2024-05-09T14:29:41.173Z,101909.77
2024-05-09T14:35:06.607Z,101899.07
2024-05-09T14:40:29.737Z,101894.63
2024-05-09T14:46:01.126Z,101884.04
2024-05-09T14:51:09.904Z,101882.52
2024-05-09T14:56:35.453Z,101874.30
2024-05-09T15:01:40.720Z,101871.86
2024-05-09T15:06:56.535Z,101871.92
2024-05-09T15:12:22.057Z,101859.95
2024-05-09T15:17:31.847Z,101855.77
2024-05-09T15:22:57.370Z,101853.09
2024-05-09T15:28:10.690Z,101850.16
2024-05-09T15:33:18.635Z,101847.54
2024-05-09T15:38:35.119Z,101848.73
2024-05-09T15:44:00.444Z,101839.18
2024-05-09T15:49:26.076Z,101838.41
2024-05-09T15:54:51.628Z,101838.31
2024-05-09T16:00:24.978Z,101837.84
2024-05-09T16:05:59.116Z,101835.53
2024-05-09T16:11:14.747Z,101836.86
2024-05-09T16:16:31.343Z,101834.79
2024-05-09T16:21:47.732Z,101836.53
2024-05-09T16:27:13.055Z,101835.66
2024-05-09T16:32:38.372Z,101833.75
2024-05-09T16:37:54.786Z,101832.00
2024-05-09T16:43:20.219Z,101830.59
2024-05-09T16:48:45.851Z,101833.27
2024-05-09T16:54:01.304Z,101829.83
2024-05-09T16:59:26.697Z,101833.02
2024-05-09T17:04:52.062Z,101831.73
2024-05-09T17:10:26.451Z,101827.60
2024-05-09T17:15:57.644Z,101827.88
2024-05-09T17:21:22.973Z,101822.67
2024-05-09T17:26:37.271Z,101821.17
2024-05-09T17:32:02.550Z,101821.03
2024-05-09T17:37:27.965Z,101820.55
2024-05-09T17:42:36.112Z,101818.71
2024-05-09T17:47:41.735Z,101824.86
2024-05-09T17:52:58.030Z,101823.48
2024-05-09T17:58:06.538Z,101824.05
2024-05-09T18:03:15.092Z,101819.61
2024-05-09T18:08:41.472Z,101822.98
2024-05-09T18:13:50.400Z,101822.55
2024-05-09T18:18:56.549Z,101826.61
2024-05-09T18:24:21.721Z,101831.10
2024-05-09T18:29:34.172Z,101835.14
2024-05-09T18:34:59.623Z,101832.65
2024-05-09T18:40:32.935Z,101830.96
2024-05-09T18:46:01.985Z,101838.11
2024-05-09T18:51:17.271Z,101841.36
2024-05-09T18:56:42.668Z,101846.63
2024-05-09T19:02:08.836Z,101854.11
2024-05-09T19:07:27.556Z,101856.88
2024-05-09T19:12:52.913Z,101865.22
2024-05-09T19:18:21.786Z,101863.91
2024-05-09T19:23:52.126Z,101872.95
2024-05-09T19:29:17.825Z,101873.90
2024-05-09T19:34:33.828Z,101873.24
2024-05-09T19:39:59.263Z,101874.59
2024-05-09T19:45:25.498Z,101879.89
2024-05-09T19:50:53.034Z,101882.83
2024-05-09T19:56:20.238Z,101892.13
2024-05-09T20:01:36.068Z,101895.61
2024-05-09T20:07:02.244Z,101903.48
2024-05-09T20:12:28.897Z,101907.42
2024-05-09T20:17:54.806Z,101910.73
2024-05-09T20:23:20.988Z,101909.33
2024-05-09T20:28:37.855Z,101903.64
2024-05-09T20:34:03.122Z,101901.88
2024-05-09T20:39:28.772Z,101899.88
2024-05-09T20:44:54.334Z,101890.73
2024-05-09T20:50:23.044Z,101895.45
2024-05-09T20:55:54.401Z,101895.94
2024-05-09T21:01:19.417Z,101893.73
2024-05-09T21:06:27.750Z,101896.55
2024-05-09T21:11:43.102Z,101893.29
2024-05-09T21:16:51.032Z,101893.02
2024-05-09T21:22:16.572Z,101894.08
2024-05-09T21:27:35.641Z,101898.25
2024-05-09T21:33:01.084Z,101899.19
2024-05-09T21:38:17.938Z,101896.35
2024-05-09T21:43:34.130Z,101897.23
2024-05-09T21:48:59.700Z,101893.96
2024-05-09T21:54:07.934Z,101894.54
2024-05-09T21:59:15.951Z,101894.47
2024-05-09T22:04:28.567Z,101893.01
2024-05-09T22:09:44.880Z,101893.83
2024-05-09T22:14:50.127Z,101892.73
2024-05-09T22:20:22.198Z,101889.67
2024-05-09T22:25:54.206Z,101889.10
2024-05-09T22:31:19.520Z,101886.80
2024-05-09T22:36:27.013Z,101891.41
2024-05-09T22:41:52.491Z,101895.83
2024-05-09T22:47:17.840Z,101892.20
2024-05-09T22:52:43.304Z,101892.21
2024-05-09T22:57:58.811Z,101892.05
2024-05-09T23:03:24.843Z,101889.11
2024-05-09T23:08:52.010Z,101887.52
2024-05-09T23:14:15.776Z,101885.92
2024-05-09T23:19:41.215Z,101884.81
2024-05-09T23:25:06.687Z,101884.83
2024-05-09T23:30:38.215Z,101879.31
2024-05-09T23:36:05.858Z,101879.88
2024-05-09T23:41:31.133Z,101875.14
2024-05-09T23:46:56.805Z,101871.27
2024-05-09T23:52:22.459Z,101871.28
2024-05-09T23:57:47.758Z,101873.92
